Hlavní strana
METAR-TAF:

METAR-TAF

Letiště :

Clemson, Jižní Karolína, Spojené státy americké

zeměpisná šířka: 34-40-20N, zeměpisná délka: 082-52-53W, výška: 272 m

Aktuální stav počasí

Zpráva byla vytvořena před 49 minutami, v 02:54 UTC
Západojihozápadní vítr 6 kt
Teplota 10°C
Vlhkost vzduchu 62%
Tlak 1013 hPa
Viditelnost: 16.1 km
Zataženo ve výšce 8500 ft

METAR: KCEU 200254Z AUTO 25006KT 10SM OVC085 10/03 A2992 RMK AO2 SLP130 T01000033 51011

Čas: 22:43 (03:43 UTC)


TAF: chybějící

Stav a předpovědi počasí z více než 4 000 letišť (zprávy METAR a TAF).

Červené a žluté tečky na mapě představují dostupné meteorologické stanice.

Když kurzor umístíte na tečku, zobrazí se název stanice.

Pak kliknutím zobrazíte stav a předpověď počasí.

Chcete-li změnit mapu, kliknutím na zelené tlačítko se znaménkem +mapu přiblížíte, kliknutím na zelené tlačítko se znaménkem – mapu oddálíte a kliknutím na zelené šipky přejdete na sousední mapy.


METAR-TAF: